UPSVAC Airport Information Service

Reno Tahoe International Airport

ICAO: KRNO Country: United States
Latitude: 39.4991 Longitude: -119.768
Latest Arrival : UPS2445 (KONT-KRNO) Latest Departure : UPS597 (KRNO-KONT)


WX CaptureLIVE
Data provided by noaa.gov | Fetched at 17:26:24

METAR : KRNO 191655Z 29022G27KT 10SM FEW070 FEW160 BKN180 BKN220 18/01 A3006 RMK AO2 PK WND 29027/1654 SLP136 T01830011

TAF : KRNO 191134Z 1912/2012 28014G24KT P6SM BKN060 WS020/23035KT FM191700 30014G24KT P6SM FEW100 SCT220 FM192200 35011G17KT P6SM FEW220 FM200700 VRB04KT P6SM SKC


Runway Data for KRNO
Data provided by openaviationdata.com

Runway ID Mag Var Hdg Length Elevation Surface ILS Freq ILS Id ILS Slope
7 15 74° 6093 ft 4414 ft Concrete -- -- --
16L 15 164° 9006 ft 4414 ft Concrete -- -- --
16R 15 164° 11008 ft 4414 ft Concrete 110.9 IRNO 3
25 15 254° 6093 ft 4414 ft Concrete -- -- --
34L 15 344° 11008 ft 4414 ft Concrete -- -- --
34R 15 344° 9006 ft 4414 ft Concrete -- -- --

Reno Tahoe International Airport, United States
Use only for reference purposes



Not for navigational purposes.